Time;durP1;ratioP1;P1;durP2;ratioP2;P2;SDS_P1;SDS_P2;PMS_P1;PMS_P2;Temp;Humidity;BMP_temperature;BMP_pressure;BME280_temperature;BME280_humidity;BME280_pressure;Samples;Min_cycle;Max_cycle;Signal;HPM_P1;HPM_P2
2022/06/09 00:00:14;;;;;;;;;;;;;;;16.79;63.54;99703.34;1730575;83;20250;-80
2022/06/09 00:03:25;;;;;;;;;;;;;;;16.84;63.75;99706.80;1730156;83;20578;-81
2022/06/09 00:06:35;;;;;;;;;;;;;;;16.85;63.79;99698.84;1730939;83;20224;-80
2022/06/09 00:09:47;;;;;;;;;;;;;;;16.84;63.76;99698.52;1730756;83;20217;-81
2022/06/09 00:12:51;;;;;;;;;;;;;;;16.81;63.70;99698.45;1729285;82;20220;-81
2022/06/09 00:15:56;;;;;;;;;;;;;;;16.82;63.31;99702.90;1730984;83;20236;-80
2022/06/09 00:19:01;;;;;;;;;;;;;;;16.81;62.99;99703.14;1730835;83;20218;-81
2022/06/09 00:22:07;;;;;;;;;;;;;;;16.76;63.20;99703.83;1729405;83;20254;-81
2022/06/09 00:25:13;;;;;;;;;;;;;;;16.76;63.58;99705.75;1730933;83;20222;-81
2022/06/09 00:28:18;;;;;;;;;;;;;;;16.78;63.50;99713.26;1721646;83;20234;-81
2022/06/09 00:31:25;;;;;;;;;;;;;;;16.81;63.40;99720.55;1697617;84;20255;-81
2022/06/09 00:34:31;;;;;;;;;;;;;;;16.83;63.37;99718.92;1698727;84;20211;-81
2022/06/09 00:37:34;;;;;;;;;;;;;;;16.86;63.18;99715.72;1698224;84;20657;-81
2022/06/09 00:40:40;;;;;;;;;;;;;;;16.87;62.98;99709.11;1697542;84;20518;-80
2022/06/09 00:43:44;;;;;;;;;;;;;;;16.84;62.98;99715.95;1696792;84;20223;-80
2022/06/09 00:46:49;;;;;;;;;;;;;;;16.78;63.11;99709.95;1696682;84;20668;-81
2022/06/09 00:50:03;;;;;;;;;;;;;;;16.74;63.20;99706.50;1698255;84;20256;-81
2022/06/09 00:53:09;;;;;;;;;;;;;;;16.71;63.11;99713.86;1698225;84;20221;-81
2022/06/09 00:56:14;;;;;;;;;;;;;;;16.70;62.99;99708.00;1698873;84;20237;-81
2022/06/09 00:59:20;;;;;;;;;;;;;;;16.66;62.93;99703.51;1697630;84;20237;-80
2022/06/09 01:02:26;;;;;;;;;;;;;;;16.68;62.87;99706.03;1697440;83;20233;-80
2022/06/09 01:05:32;;;;;;;;;;;;;;;16.69;63.32;99702.19;1696774;84;20248;-81
2022/06/09 01:08:37;;;;;;;;;;;;;;;16.67;63.53;99705.73;1698439;84;20245;-81
2022/06/09 01:11:41;;;;;;;;;;;;;;;16.67;63.77;99700.20;1696653;84;20248;-81
2022/06/09 01:14:47;;;;;;;;;;;;;;;16.68;63.89;99699.96;1697365;84;20237;-81
2022/06/09 01:18:07;;;;;;;;;;;;;;;16.70;64.01;99703.35;1716290;83;20306;-80
2022/06/09 01:21:34;;;;;;;;;;;;;;;16.72;64.02;99701.77;1727051;83;20246;-81
2022/06/09 01:25:12;;;;;;;;;;;;;;;16.73;63.80;99699.30;1727651;83;20558;-81
2022/06/09 01:28:34;;;;;;;;;;;;;;;16.75;63.74;99697.14;1727443;83;20210;-81
2022/06/09 01:31:59;;;;;;;;;;;;;;;16.75;63.53;99697.14;1739036;82;20615;-81
2022/06/09 01:35:30;;;;;;;;;;;;;;;16.77;63.47;99699.99;1729535;83;20236;-81
2022/06/09 01:38:36;;;;;;;;;;;;;;;16.74;63.45;99693.53;1730923;83;20228;-80
2022/06/09 01:41:42;;;;;;;;;;;;;;;16.70;63.39;99690.93;1729530;83;20244;-81
2022/06/09 01:44:47;;;;;;;;;;;;;;;16.68;63.42;99690.84;1730963;83;20228;-80
2022/06/09 01:48:04;;;;;;;;;;;;;;;16.67;63.47;99690.54;1731782;83;20252;-81
2022/06/09 01:51:22;;;;;;;;;;;;;;;16.67;63.49;99688.62;1729394;83;20212;-80
2022/06/09 01:54:35;;;;;;;;;;;;;;;16.68;63.54;99683.39;1731092;83;20216;-81
2022/06/09 01:57:43;;;;;;;;;;;;;;;16.73;63.45;99686.34;1730933;83;20225;-80
2022/06/09 02:00:46;;;;;;;;;;;;;;;16.89;63.26;99684.88;1730958;83;20225;-81
2022/06/09 02:03:48;;;;;;;;;;;;;;;17.13;62.84;99687.75;1695586;84;20645;-80
2022/06/09 02:06:51;;;;;;;;;;;;;;;17.38;62.21;99687.87;1695760;84;20251;-81
2022/06/09 02:09:56;;;;;;;;;;;;;;;17.67;61.50;99688.61;1696028;84;20252;-80
2022/06/09 02:13:01;;;;;;;;;;;;;;;17.95;60.61;99692.11;1694734;84;20227;-80
2022/06/09 02:16:08;;;;;;;;;;;;;;;18.20;59.80;99695.47;1695673;84;20243;-81
2022/06/09 02:19:12;;;;;;;;;;;;;;;18.44;59.04;99696.84;1709699;84;20248;-81
2022/06/09 02:22:19;;;;;;;;;;;;;;;18.68;58.26;99694.87;1710506;84;20251;-81
2022/06/09 02:25:24;;;;;;;;;;;;;;;18.97;57.48;99698.58;1711113;84;20212;-81
2022/06/09 02:28:30;;;;;;;;;;;;;;;19.26;56.49;99700.81;1711270;84;20215;-81
2022/06/09 02:31:35;;;;;;;;;;;;;;;19.57;55.44;99696.66;1719351;82;20688;-82
2022/06/09 02:34:41;;;;;;;;;;;;;;;19.88;54.37;99696.13;1722238;83;20201;-81
2022/06/09 02:37:47;;;;;;;;;;;;;;;20.22;53.31;99702.20;1722292;83;20241;-81
2022/06/09 02:40:54;;;;;;;;;;;;;;;20.49;52.29;99707.38;1721514;83;20213;-81
2022/06/09 02:43:59;;;;;;;;;;;;;;;20.76;51.54;99705.25;1720800;83;20229;-82
2022/06/09 02:47:03;;;;;;;;;;;;;;;21.06;50.86;99710.34;1722175;82;20207;-82
2022/06/09 02:50:08;;;;;;;;;;;;;;;21.35;49.95;99704.86;1721422;83;20210;-81
2022/06/09 02:53:13;;;;;;;;;;;;;;;21.60;49.15;99708.48;1721718;83;20227;-81
2022/06/09 02:56:17;;;;;;;;;;;;;;;21.84;48.32;99704.80;1720835;83;20641;-81
2022/06/09 02:59:22;;;;;;;;;;;;;;;22.07;47.65;99703.60;1720774;83;20605;-81
2022/06/09 03:02:27;;;;;;;;;;;;;;;22.34;46.86;99702.69;1721926;83;20227;-82
2022/06/09 03:05:31;;;;;;;;;;;;;;;22.58;45.98;99700.33;1722166;83;20223;-82
2022/06/09 03:08:37;;;;;;;;;;;;;;;22.82;45.55;99701.59;1720646;83;20708;-82
2022/06/09 03:11:42;;;;;;;;;;;;;;;23.03;44.96;99703.09;1720608;83;20696;-82
2022/06/09 03:14:46;;;;;;;;;;;;;;;23.11;44.51;99704.81;1722377;83;20199;-81
2022/06/09 03:17:53;;;;;;;;;;;;;;;23.25;44.35;99702.34;1722201;83;20668;-81
2022/06/09 03:20:57;;;;;;;;;;;;;;;23.36;44.08;99697.63;1721051;83;20227;-82
2022/06/09 03:24:02;;;;;;;;;;;;;;;23.36;44.03;99699.02;1721083;83;20235;-81
2022/06/09 03:27:06;;;;;;;;;;;;;;;23.32;44.32;99703.47;1722160;83;20226;-82
2022/06/09 03:30:12;;;;;;;;;;;;;;;23.30;44.71;99697.34;1722605;83;20246;-81
2022/06/09 03:33:16;;;;;;;;;;;;;;;23.34;45.09;99698.47;1720158;83;20227;-81
2022/06/09 03:36:23;;;;;;;;;;;;;;;23.45;45.26;99700.16;1719389;83;20672;-82
2022/06/09 03:39:27;;;;;;;;;;;;;;;23.59;45.21;99690.13;1720909;83;20640;-81
2022/06/09 03:42:33;;;;;;;;;;;;;;;23.69;45.12;99695.75;1720799;83;20630;-82
2022/06/09 03:45:39;;;;;;;;;;;;;;;23.76;45.13;99691.31;1720820;83;20637;-81
2022/06/09 03:48:43;;;;;;;;;;;;;;;23.81;44.88;99691.88;1721020;83;20219;-82
2022/06/09 03:51:48;;;;;;;;;;;;;;;23.74;45.30;99687.94;1720274;83;20231;-82
2022/06/09 03:54:53;;;;;;;;;;;;;;;23.78;44.89;99682.65;1719414;83;20255;-81
2022/06/09 03:57:58;;;;;;;;;;;;;;;23.74;44.97;99680.13;1722186;83;20207;-81
2022/06/09 04:01:03;;;;;;;;;;;;;;;23.67;44.43;99681.81;1720502;83;20238;-82
2022/06/09 04:04:07;;;;;;;;;;;;;;;23.60;44.95;99686.22;1718085;83;20200;-81
2022/06/09 04:07:11;;;;;;;;;;;;;;;23.61;44.83;99692.64;1717992;83;20242;-82
2022/06/09 04:10:22;;;;;;;;;;;;;;;23.59;45.07;99690.13;1719325;83;20539;-81
2022/06/09 04:13:26;;;;;;;;;;;;;;;23.54;45.76;99690.13;1718680;83;20259;-81
2022/06/09 04:16:37;;;;;;;;;;;;;;;23.52;44.58;99686.75;1719708;83;20235;-81
2022/06/09 04:19:42;;;;;;;;;;;;;;;23.52;45.31;99690.95;1721092;83;20290;-81
2022/06/09 04:22:47;;;;;;;;;;;;;;;23.48;45.18;99694.03;1719455;83;20649;-81
2022/06/09 04:25:52;;;;;;;;;;;;;;;23.50;45.35;99695.14;1721004;83;20207;-81
2022/06/09 04:28:58;;;;;;;;;;;;;;;23.55;45.46;99699.33;1721598;83;20318;-81
2022/06/09 04:32:04;;;;;;;;;;;;;;;23.65;45.35;99697.98;1721191;83;20636;-81
2022/06/09 04:35:08;;;;;;;;;;;;;;;23.76;45.61;99693.23;1749695;81;20240;-81
2022/06/09 04:38:16;;;;;;;;;;;;;;;23.80;45.71;99690.17;1740324;81;20223;-82
2022/06/09 04:41:21;;;;;;;;;;;;;;;23.82;45.73;99693.54;1758209;81;20637;-82
2022/06/09 04:44:26;;;;;;;;;;;;;;;23.85;46.51;99695.76;1760192;81;20208;-81
2022/06/09 04:47:31;;;;;;;;;;;;;;;23.90;46.89;99698.55;1747197;81;20202;-81
2022/06/09 04:50:37;;;;;;;;;;;;;;;24.02;47.17;99697.72;1730401;83;20230;-81
2022/06/09 04:53:41;;;;;;;;;;;;;;;24.19;46.48;99705.83;1728839;83;20250;-81
2022/06/09 04:56:46;;;;;;;;;;;;;;;24.29;44.71;99710.56;1728685;83;20715;-82
2022/06/09 04:59:49;;;;;;;;;;;;;;;24.33;44.00;99704.13;1729921;83;20227;-81
2022/06/09 05:02:54;;;;;;;;;;;;;;;24.41;44.09;99705.53;1730204;81;20222;-82
2022/06/09 05:06:00;;;;;;;;;;;;;;;24.57;43.99;99698.80;1730769;83;20207;-81
2022/06/09 05:09:05;;;;;;;;;;;;;;;24.64;43.17;99704.92;1728091;83;20207;-81
2022/06/09 05:12:15;;;;;;;;;;;;;;;24.78;43.36;99707.95;1729811;83;20259;-81
2022/06/09 05:15:22;;;;;;;;;;;;;;;24.96;44.08;99713.49;1728267;83;20215;-81
2022/06/09 05:18:30;;;;;;;;;;;;;;;25.11;42.24;99716.25;1729689;82;20263;-82
2022/06/09 05:21:34;;;;;;;;;;;;;;;25.13;41.89;99718.22;1731483;83;20882;-82
2022/06/09 05:24:38;;;;;;;;;;;;;;;25.19;42.38;99716.23;1731659;83;20202;-82
2022/06/09 05:27:44;;;;;;;;;;;;;;;25.21;42.08;99714.80;1730941;83;20259;-81
2022/06/09 05:30:48;;;;;;;;;;;;;;;25.30;41.77;99718.41;1729455;83;20325;-82
2022/06/09 05:33:51;;;;;;;;;;;;;;;25.42;42.27;99718.34;1728917;82;20698;-81
2022/06/09 05:36:58;;;;;;;;;;;;;;;25.66;41.75;99721.27;1729709;81;20695;-81
2022/06/09 05:46:48;;;;;;;;;;;;;;;26.11;41.37;99717.89;1747725;81;20612;-81
2022/06/09 05:49:53;;;;;;;;;;;;;;;26.25;40.96;99718.88;1719722;82;20648;-81
2022/06/09 05:52:58;;;;;;;;;;;;;;;26.29;40.27;99718.27;1730656;83;20234;-82
2022/06/09 05:56:05;;;;;;;;;;;;;;;26.36;40.00;99714.58;1729365;83;20206;-79
2022/06/09 05:59:08;;;;;;;;;;;;;;;26.42;40.16;99718.42;1730757;83;20267;-80
2022/06/09 06:02:15;;;;;;;;;;;;;;;26.54;40.49;99718.08;1729409;83;20160;-80
2022/06/09 06:08:43;;;;;;;;;;;;;;;26.69;38.70;99714.27;1728826;83;20288;-80
2022/06/09 06:11:48;;;;;;;;;;;;;;;26.73;38.39;99706.93;1731248;81;20428;-82
2022/06/09 06:14:53;;;;;;;;;;;;;;;26.72;38.78;99710.30;1760180;81;20244;-80
2022/06/09 06:18:03;;;;;;;;;;;;;;;26.75;38.82;99706.88;1760435;81;20671;-80
2022/06/09 06:21:07;;;;;;;;;;;;;;;26.88;37.75;99703.94;1743322;81;20218;-80
2022/06/09 06:24:14;;;;;;;;;;;;;;;27.00;36.92;99708.54;1730591;83;20631;-80
2022/06/09 06:27:17;;;;;;;;;;;;;;;27.13;36.36;99712.63;1730688;83;20231;-79
2022/06/09 06:30:22;;;;;;;;;;;;;;;27.20;34.89;99708.07;1733183;81;20251;-79
2022/06/09 06:33:26;;;;;;;;;;;;;;;27.25;35.53;99706.59;1730277;83;20202;-80
2022/06/09 06:36:29;;;;;;;;;;;;;;;27.38;36.33;99707.80;1721584;83;20269;-80
2022/06/09 06:39:35;;;;;;;;;;;;;;;27.51;34.35;99712.10;1719657;83;20626;-79
2022/06/09 06:42:41;;;;;;;;;;;;;;;27.59;34.43;99713.41;1699137;83;20757;-80
2022/06/09 06:45:46;;;;;;;;;;;;;;;27.67;33.08;99719.75;1721171;83;20757;-80
2022/06/09 06:48:53;;;;;;;;;;;;;;;27.72;34.14;99716.06;1727189;83;20642;-79
2022/06/09 06:51:58;;;;;;;;;;;;;;;27.81;32.90;99722.67;1727727;83;20244;-80
2022/06/09 06:55:04;;;;;;;;;;;;;;;27.83;32.69;99725.99;1727423;83;20205;-80
2022/06/09 06:58:09;;;;;;;;;;;;;;;27.86;32.70;99727.37;1707350;83;20681;-81
2022/06/09 07:01:13;;;;;;;;;;;;;;;27.94;33.34;99726.08;1727794;83;20240;-81
2022/06/09 07:04:18;;;;;;;;;;;;;;;28.05;33.21;99723.13;1706816;83;20203;-81
2022/06/09 07:07:24;;;;;;;;;;;;;;;28.17;33.47;99726.28;1698433;84;20250;-80
2022/06/09 07:10:29;;;;;;;;;;;;;;;28.27;30.45;99723.29;1698717;84;20235;-81
2022/06/09 07:13:36;;;;;;;;;;;;;;;28.28;31.28;99726.39;1698982;84;20200;-80
2022/06/09 07:16:41;;;;;;;;;;;;;;;28.34;32.29;99718.69;1697265;84;20252;-80
2022/06/09 07:19:46;;;;;;;;;;;;;;;28.33;31.31;99722.08;1698394;84;20211;-81
2022/06/09 07:22:51;;;;;;;;;;;;;;;28.28;31.90;99717.38;1696861;84;20711;-81
2022/06/09 07:25:56;;;;;;;;;;;;;;;28.34;30.69;99718.69;1702128;83;20424;-81
2022/06/09 07:29:01;;;;;;;;;;;;;;;28.43;30.86;99716.88;1709719;83;20217;-81
2022/06/09 07:32:07;;;;;;;;;;;;;;;28.52;30.02;99720.64;1727626;83;20228;-80
2022/06/09 07:35:11;;;;;;;;;;;;;;;28.47;30.46;99709.48;1715083;83;20232;-80
2022/06/09 07:38:17;;;;;;;;;;;;;;;28.59;31.05;99717.41;1736717;81;20246;-81
2022/06/09 07:41:23;;;;;;;;;;;;;;;28.52;31.09;99719.23;1726747;81;20243;-80
2022/06/09 07:44:29;;;;;;;;;;;;;;;28.52;31.79;99710.80;1732149;81;20209;-80
2022/06/09 07:47:37;;;;;;;;;;;;;;;28.68;31.45;99715.55;1730170;81;20241;-80
2022/06/09 07:50:41;;;;;;;;;;;;;;;28.83;30.44;99720.88;1729006;81;20219;-80
2022/06/09 07:53:46;;;;;;;;;;;;;;;28.97;30.76;99714.70;1730841;81;20384;-80
2022/06/09 07:56:50;;;;;;;;;;;;;;;29.00;29.84;99709.03;1739431;81;20208;-80
2022/06/09 07:59:56;;;;;;;;;;;;;;;29.06;30.84;99702.72;1739371;81;20232;-80
2022/06/09 08:03:05;;;;;;;;;;;;;;;29.21;30.38;99704.62;1739069;81;20626;-80
2022/06/09 08:06:12;;;;;;;;;;;;;;;29.25;30.06;99705.66;1731423;81;20231;-80
2022/06/09 08:09:17;;;;;;;;;;;;;;;29.34;30.50;99704.92;1732199;81;20262;-80
2022/06/09 08:12:17;;;;;;;;;;;;;;;29.52;30.34;99710.42;1729838;81;20608;-80
2022/06/09 08:15:09;;;;;;;;;;;;;;;29.62;29.65;99702.91;1732707;81;20684;-80
2022/06/09 08:18:04;;;;;;;;;;;;;;;29.65;29.76;99701.70;1730061;81;20215;-80
2022/06/09 08:21:09;;;;;;;;;;;;;;;29.74;29.64;99704.03;1728748;81;20182;-80
2022/06/09 08:24:24;;;;;;;;;;;;;;;29.80;29.70;99701.91;1728864;81;20227;-80
2022/06/09 08:27:17;;;;;;;;;;;;;;;29.87;30.31;99697.23;1733725;81;20321;-80
2022/06/09 08:30:23;;;;;;;;;;;;;;;29.85;28.28;99713.06;1755141;81;20232;-80
2022/06/09 08:33:28;;;;;;;;;;;;;;;29.48;28.82;99702.91;1756725;81;20220;-80
2022/06/09 08:36:32;;;;;;;;;;;;;;;29.45;29.39;99697.91;1746004;81;20237;-80
2022/06/09 08:39:38;;;;;;;;;;;;;;;29.66;29.26;99699.72;1713543;82;20255;-80
2022/06/09 08:43:02;;;;;;;;;;;;;;;29.78;28.90;99690.97;1709934;84;20716;-80
2022/06/09 08:46:10;;;;;;;;;;;;;;;29.64;28.73;99704.83;1711951;82;20262;-80
2022/06/09 08:49:15;;;;;;;;;;;;;;;29.22;29.24;99697.03;1719159;82;20222;-80
2022/06/09 08:52:45;;;;;;;;;;;;;;;28.84;29.65;99694.39;1720354;82;20215;-80
2022/06/09 08:55:52;;;;;;;;;;;;;;;28.61;30.17;99700.50;1672617;85;20258;-80
2022/06/09 08:59:01;;;;;;;;;;;;;;;28.31;30.56;99695.39;1713841;84;20686;-80
2022/06/09 09:02:08;;;;;;;;;;;;;;;28.15;30.15;99697.66;1699495;83;20504;-80
2022/06/09 09:05:11;;;;;;;;;;;;;;;28.18;30.09;99692.26;1706933;83;20189;-80
2022/06/09 09:08:18;;;;;;;;;;;;;;;28.43;30.18;99688.75;1674214;84;20229;-80
2022/06/09 09:11:50;;;;;;;;;;;;;;;28.73;29.75;99691.53;1711482;83;20227;-80
2022/06/09 09:15:24;;;;;;;;;;;;;;;28.87;29.55;99683.92;1713017;83;20691;-80
2022/06/09 09:18:35;;;;;;;;;;;;;;;28.97;29.71;99689.37;1722900;83;20221;-80
2022/06/09 09:21:45;;;;;;;;;;;;;;;28.93;29.52;99690.27;1730408;83;20228;-81
2022/06/09 09:25:01;;;;;;;;;;;;;;;28.88;29.60;99686.16;1735437;82;20257;-80
2022/06/09 09:28:30;;;;;;;;;;;;;;;28.85;30.02;99682.59;1728320;82;20207;-80
2022/06/09 09:31:56;;;;;;;;;;;;;;;28.65;30.11;99689.44;1711064;84;20547;-80
2022/06/09 09:35:00;;;;;;;;;;;;;;;28.40;30.72;99687.38;1634266;87;20265;-80
2022/06/09 09:38:05;;;;;;;;;;;;;;;28.27;31.21;99683.34;1713665;83;20640;-80
2022/06/09 09:41:12;;;;;;;;;;;;;;;28.15;30.76;99687.24;1696072;84;20257;-80
2022/06/09 09:44:31;;;;;;;;;;;;;;;27.98;31.74;99695.40;1698598;83;20225;-80
2022/06/09 09:47:37;;;;;;;;;;;;;;;27.82;31.33;99693.42;1703796;83;20242;-80
2022/06/09 09:50:48;;;;;;;;;;;;;;;27.81;31.24;99689.48;1725915;83;20203;-80
2022/06/09 09:54:01;;;;;;;;;;;;;;;27.80;30.87;99683.04;1721346;83;20269;-80
2022/06/09 09:57:24;;;;;;;;;;;;;;;27.97;31.95;99681.09;1696723;84;20245;-80
2022/06/09 10:00:34;;;;;;;;;;;;;;;28.29;32.00;99674.63;1696747;84;20221;-80
2022/06/09 10:11:53;;;;;;;;;;;;;;;28.34;30.74;99675.11;1695564;84;20551;-80
2022/06/09 10:14:10;;;;;;;;;;;;;;;28.24;31.12;99668.52;1696736;84;20249;-80
2022/06/09 10:17:37;;;;;;;;;;;;;;;28.12;31.44;99671.55;1696449;84;20237;-81
2022/06/09 10:21:11;;;;;;;;;;;;;;;28.00;31.34;99672.05;1697508;84;20619;-80
2022/06/09 10:24:15;;;;;;;;;;;;;;;27.84;31.42;99669.22;1697544;84;20142;-80
2022/06/09 10:27:23;;;;;;;;;;;;;;;27.74;31.55;99675.27;1721525;83;20246;-79
2022/06/09 10:30:37;;;;;;;;;;;;;;;27.71;31.82;99662.36;1696529;84;20666;-80
2022/06/09 10:33:49;;;;;;;;;;;;;;;27.87;31.62;99654.00;1705063;83;20518;-80
2022/06/09 10:36:57;;;;;;;;;;;;;;;28.22;31.00;99648.88;1724275;83;20796;-80
2022/06/09 10:40:14;;;;;;;;;;;;;;;28.53;31.02;99640.16;1756681;81;20224;-80
2022/06/09 10:43:35;;;;;;;;;;;;;;;28.72;29.87;99635.83;1735262;81;20677;-80
2022/06/09 10:57:49;;;;;;;;;;;;;;;28.97;28.72;99636.46;1757553;81;20201;-80
2022/06/09 11:00:56;;;;;;;;;;;;;;;28.83;28.69;99632.22;1756282;81;20272;-80
2022/06/09 11:04:02;;;;;;;;;;;;;;;28.91;28.97;99623.62;1741894;81;20231;-80
2022/06/09 11:07:26;;;;;;;;;;;;;;;29.13;28.75;99627.95;1726535;83;20250;-80
2022/06/09 11:10:52;;;;;;;;;;;;;;;29.35;28.20;99636.17;1726628;83;20224;-80
2022/06/09 11:14:01;;;;;;;;;;;;;;;29.29;27.94;99629.25;1636273;87;20247;-80
2022/06/09 11:17:22;;;;;;;;;;;;;;;29.03;28.98;99629.02;1636163;87;20267;-80
2022/06/09 11:20:46;;;;;;;;;;;;;;;28.72;30.34;99627.39;1727078;83;20255;-80
2022/06/09 11:23:42;;;;;;;;;;;;;;;28.65;29.55;99635.41;1726998;83;20238;-80
2022/06/09 11:26:57;;;;;;;;;;;;;;;28.68;29.62;99632.55;1727589;83;20235;-80
2022/06/09 11:30:12;;;;;;;;;;;;;;;28.78;29.31;99633.16;1725752;83;20227;-80
2022/06/09 11:33:49;;;;;;;;;;;;;;;28.80;29.23;99620.78;1726186;83;20214;-80
2022/06/09 11:36:59;;;;;;;;;;;;;;;28.78;29.36;99628.11;1727557;83;20270;-80
2022/06/09 11:40:09;;;;;;;;;;;;;;;28.62;29.35;99628.18;1701473;83;20251;-80
2022/06/09 11:43:45;;;;;;;;;;;;;;;28.46;29.78;99623.41;1722163;83;20251;-80
2022/06/09 11:46:51;;;;;;;;;;;;;;;28.38;29.25;99617.96;1707556;83;20704;-80
2022/06/09 11:49:57;;;;;;;;;;;;;;;28.42;30.23;99627.99;1745841;82;20209;-80
2022/06/09 11:53:01;;;;;;;;;;;;;;;28.46;29.93;99628.47;1752871;82;20620;-80
2022/06/09 11:56:43;;;;;;;;;;;;;;;28.46;29.44;99625.66;1727974;82;20196;-80
2022/06/09 12:00:05;;;;;;;;;;;;;;;28.51;29.29;99620.50;1750974;82;20749;-80
2022/06/09 12:03:29;;;;;;;;;;;;;;;28.66;29.49;99625.01;1752064;82;20252;-80
2022/06/09 12:06:44;;;;;;;;;;;;;;;28.76;29.02;99619.16;1750187;81;20221;-81
2022/06/09 12:10:28;;;;;;;;;;;;;;;28.86;28.82;99616.12;1754888;81;20800;-81
2022/06/09 12:13:35;;;;;;;;;;;;;;;28.88;28.91;99622.26;1757861;81;20240;-81
2022/06/09 12:17:05;;;;;;;;;;;;;;;28.86;28.99;99625.98;1756005;81;20725;-81
2022/06/09 12:20:13;;;;;;;;;;;;;;;28.71;29.26;99624.33;1722533;81;20625;-80
2022/06/09 12:23:30;;;;;;;;;;;;;;;28.57;29.78;99623.49;1722020;83;20641;-80
2022/06/09 12:26:48;;;;;;;;;;;;;;;28.51;30.41;99621.91;1721828;83;20219;-80
2022/06/09 12:30:04;;;;;;;;;;;;;;;28.53;30.64;99616.24;1756442;81;20481;-80
2022/06/09 12:33:26;;;;;;;;;;;;;;;28.59;30.79;99623.17;1745255;81;20214;-80
2022/06/09 12:36:18;;;;;;;;;;;;;;;28.67;30.13;99621.88;1734286;82;20233;-80
2022/06/09 12:39:18;;;;;;;;;;;;;;;28.80;29.89;99615.98;1704051;82;20653;-81
2022/06/09 12:42:34;;;;;;;;;;;;;;;28.89;29.65;99615.50;1692175;84;20247;-81
2022/06/09 12:45:40;;;;;;;;;;;;;;;28.98;29.30;99614.20;1709619;84;20712;-81
2022/06/09 12:48:44;;;;;;;;;;;;;;;28.95;28.73;99612.86;1716130;82;20227;-81
2022/06/09 12:51:49;;;;;;;;;;;;;;;28.85;29.03;99612.23;1765921;81;20225;-80
2022/06/09 12:55:04;;;;;;;;;;;;;;;28.76;29.86;99612.13;1712690;84;20247;-80
2022/06/09 12:58:23;;;;;;;;;;;;;;;28.67;29.78;99616.24;1693746;84;20626;-80
2022/06/09 13:01:31;;;;;;;;;;;;;;;28.59;29.46;99610.52;1713846;84;20200;-79
2022/06/09 13:04:37;;;;;;;;;;;;;;;28.53;29.36;99605.56;1712590;84;20899;-80
2022/06/09 13:07:49;;;;;;;;;;;;;;;28.51;29.93;99610.66;1731008;82;20280;-80
2022/06/09 13:10:56;;;;;;;;;;;;;;;28.61;30.11;99609.06;1728533;82;21578;-80
2022/06/09 13:14:02;;;;;;;;;;;;;;;28.78;30.23;99607.84;1741079;82;20265;-80
2022/06/09 13:17:23;;;;;;;;;;;;;;;28.98;29.00;99612.79;1774476;81;20702;-80
2022/06/09 13:20:29;;;;;;;;;;;;;;;29.10;28.81;99607.45;1769960;81;20178;-80
2022/06/09 13:23:34;;;;;;;;;;;;;;;29.14;29.40;99610.48;1774197;81;20203;-80
2022/06/09 13:26:47;;;;;;;;;;;;;;;28.98;29.04;99612.79;1774038;81;20258;-80
2022/06/09 13:30:10;;;;;;;;;;;;;;;28.80;29.29;99608.95;1772813;81;20222;-80
2022/06/09 13:33:37;;;;;;;;;;;;;;;28.67;29.40;99609.21;1773271;81;20203;-80
2022/06/09 13:36:48;;;;;;;;;;;;;;;28.62;29.43;99607.08;1741250;82;20388;-80
2022/06/09 13:39:59;;;;;;;;;;;;;;;28.58;29.82;99608.27;1739462;82;20519;-80
2022/06/09 13:43:06;;;;;;;;;;;;;;;28.48;30.22;99606.50;1700235;83;20210;-80
2022/06/09 13:46:18;;;;;;;;;;;;;;;28.50;30.37;99597.16;1715702;83;20222;-80
2022/06/09 13:49:27;;;;;;;;;;;;;;;28.56;30.16;99599.33;1698665;84;20249;-80
2022/06/09 13:52:59;;;;;;;;;;;;;;;28.57;29.80;99604.37;1698645;84;20256;-80
2022/06/09 13:56:07;;;;;;;;;;;;;;;28.54;29.57;99588.95;1685651;83;20221;-80
2022/06/09 13:59:11;;;;;;;;;;;;;;;28.49;29.49;99590.45;1698353;84;20241;-80
2022/06/09 14:02:19;;;;;;;;;;;;;;;28.48;30.11;99593.84;1698406;84;20220;-80
2022/06/09 14:05:24;;;;;;;;;;;;;;;28.50;29.77;99584.52;1698308;84;20228;-80
2022/06/09 14:08:32;;;;;;;;;;;;;;;28.60;29.97;99594.72;1698507;84;20541;-80
2022/06/09 14:11:39;;;;;;;;;;;;;;;28.67;30.09;99586.70;1697037;84;20228;-80
2022/06/09 14:14:45;;;;;;;;;;;;;;;28.74;29.75;99582.05;1698628;84;20209;-80
2022/06/09 14:17:54;;;;;;;;;;;;;;;28.81;29.00;99581.64;1696978;84;20410;-80
2022/06/09 14:20:59;;;;;;;;;;;;;;;28.82;29.41;99586.11;1697773;84;20334;-80
2022/06/09 14:24:05;;;;;;;;;;;;;;;28.85;28.93;99580.69;1698546;84;20674;-80
2022/06/09 14:27:10;;;;;;;;;;;;;;;28.85;28.82;99581.27;1697491;83;20233;-80
2022/06/09 14:30:21;;;;;;;;;;;;;;;28.88;28.28;99576.40;1696547;84;20221;-80
2022/06/09 14:33:26;;;;;;;;;;;;;;;28.91;28.14;99582.81;1698279;84;20221;-80
2022/06/09 14:36:31;;;;;;;;;;;;;;;28.91;28.33;99586.45;1698821;84;20225;-80
2022/06/09 14:39:35;;;;;;;;;;;;;;;28.86;27.87;99579.54;1699125;84;20201;-80
2022/06/09 14:42:41;;;;;;;;;;;;;;;28.81;27.92;99580.23;1713978;83;20267;-80
2022/06/09 14:45:46;;;;;;;;;;;;;;;28.72;28.34;99588.00;1719737;83;20664;-80
2022/06/09 14:48:51;;;;;;;;;;;;;;;28.60;28.38;99582.05;1721060;83;20183;-80
2022/06/09 14:51:56;;;;;;;;;;;;;;;28.49;28.46;99577.80;1719944;83;20202;-80
2022/06/09 14:55:01;;;;;;;;;;;;;;;28.43;28.58;99576.25;1721950;83;20226;-80
2022/06/09 14:58:04;;;;;;;;;;;;;;;28.34;29.21;99580.36;1728141;83;20224;-80
2022/06/09 15:01:09;;;;;;;;;;;;;;;28.25;28.65;99590.05;1727071;83;20233;-80
2022/06/09 15:04:14;;;;;;;;;;;;;;;28.21;28.50;99585.36;1728296;83;20522;-79
2022/06/09 15:07:21;;;;;;;;;;;;;;;28.15;28.91;99583.80;1728498;83;20221;-81
2022/06/09 15:10:30;;;;;;;;;;;;;;;28.11;29.29;99588.38;1727604;83;20221;-80
2022/06/09 15:13:35;;;;;;;;;;;;;;;28.06;29.04;99589.30;1728396;83;20220;-80
2022/06/09 15:16:40;;;;;;;;;;;;;;;27.98;29.46;99590.00;1726674;82;20619;-80
2022/06/09 15:19:46;;;;;;;;;;;;;;;27.87;30.22;99587.95;1727652;83;20209;-80
2022/06/09 15:22:52;;;;;;;;;;;;;;;27.75;30.04;99589.00;1728329;83;20205;-80
2022/06/09 15:25:56;;;;;;;;;;;;;;;27.62;30.13;99587.81;1726892;83;20244;-80
2022/06/09 15:29:02;;;;;;;;;;;;;;;27.50;30.24;99579.84;1698777;84;20224;-80
2022/06/09 15:32:07;;;;;;;;;;;;;;;27.43;30.81;99592.59;1697804;84;20251;-80
2022/06/09 15:35:12;;;;;;;;;;;;;;;27.37;31.37;99590.45;1698238;84;20238;-80
2022/06/09 15:38:17;;;;;;;;;;;;;;;27.34;31.05;99586.03;1698532;84;20238;-80
2022/06/09 15:41:22;;;;;;;;;;;;;;;27.29;31.08;99595.91;1716828;83;20209;-80
2022/06/09 15:44:20;;;;;;;;;;;;;;;27.24;31.53;99591.20;1749733;82;20673;-80
2022/06/09 15:47:24;;;;;;;;;;;;;;;27.17;31.16;99593.00;1751106;82;20224;-80
2022/06/09 15:50:31;;;;;;;;;;;;;;;27.12;31.84;99599.27;1751893;82;20229;-80
2022/06/09 15:53:35;;;;;;;;;;;;;;;27.06;31.68;99595.67;1751727;82;21140;-80
2022/06/09 15:56:41;;;;;;;;;;;;;;;27.02;31.27;99607.23;1727453;82;20226;-80
2022/06/09 15:59:45;;;;;;;;;;;;;;;26.97;31.20;99602.53;1722246;83;20235;-80
2022/06/09 16:02:51;;;;;;;;;;;;;;;26.93;31.62;99597.82;1721558;83;20219;-80
2022/06/09 16:05:55;;;;;;;;;;;;;;;26.88;31.41;99592.28;1722374;83;21044;-80
2022/06/09 16:09:00;;;;;;;;;;;;;;;26.82;31.45;99590.66;1720781;83;20231;-80
2022/06/09 16:12:07;;;;;;;;;;;;;;;26.75;31.84;99591.88;1721406;83;20229;-80
2022/06/09 16:15:15;;;;;;;;;;;;;;;26.70;32.49;99596.72;1722199;83;20229;-80
2022/06/09 16:18:22;;;;;;;;;;;;;;;26.62;32.69;99591.20;1740510;82;20247;-80
2022/06/09 16:21:33;;;;;;;;;;;;;;;26.53;33.00;99600.00;1723694;82;20250;-79
2022/06/09 16:24:40;;;;;;;;;;;;;;;26.41;33.18;99597.61;1742986;81;20173;-81
2022/06/09 16:27:44;;;;;;;;;;;;;;;26.32;33.60;99602.77;1722124;83;20242;-81
2022/06/09 16:30:50;;;;;;;;;;;;;;;26.19;33.92;99599.52;1721889;83;20234;-80
2022/06/09 16:33:55;;;;;;;;;;;;;;;26.07;34.09;99606.69;1722152;83;20222;-80
2022/06/09 16:36:59;;;;;;;;;;;;;;;25.94;34.61;99601.20;1720094;83;20251;-81
2022/06/09 16:40:06;;;;;;;;;;;;;;;25.83;35.07;99605.20;1726333;82;20237;-80
2022/06/09 16:43:15;;;;;;;;;;;;;;;25.71;35.42;99603.61;1747946;82;20254;-81
2022/06/09 16:46:19;;;;;;;;;;;;;;;25.59;35.72;99611.54;1741089;82;20198;-81
2022/06/09 16:49:23;;;;;;;;;;;;;;;25.49;35.91;99612.45;1740773;82;20201;-81